Time;durP1;ratioP1;P1;durP2;ratioP2;P2;SDS_P1;SDS_P2;PMS_P1;PMS_P2;Temp;Humidity;BMP_temperature;BMP_pressure;BME280_temperature;BME280_humidity;BME280_pressure;Samples;Min_cycle;Max_cycle;Signal;HPM_P1;HPM_P2
2023/12/16 00:01:48;;;;;;;1999.90;999.90;;;7.70;99.90;;;;;;5028876;28;20049;-71
2023/12/16 00:04:13;;;;;;;1999.90;999.90;;;7.70;99.90;;;;;;5030849;28;20021;-70
2023/12/16 00:06:39;;;;;;;1999.90;999.90;;;7.70;99.90;;;;;;5036072;28;20335;-70
2023/12/16 00:09:05;;;;;;;1999.90;999.90;;;7.70;99.90;;;;;;5038285;28;20034;-70
2023/12/16 00:11:30;;;;;;;1999.90;999.90;;;7.70;99.90;;;;;;5045969;28;20017;-71
2023/12/16 00:13:56;;;;;;;1999.90;999.90;;;7.70;99.90;;;;;;5042356;28;20029;-70
2023/12/16 00:16:23;;;;;;;1999.90;999.90;;;7.60;99.90;;;;;;5039370;28;20462;-70
2023/12/16 00:18:49;;;;;;;1999.90;999.90;;;7.50;99.90;;;;;;5036947;28;20041;-70
2023/12/16 00:21:15;;;;;;;1999.90;999.90;;;7.50;99.90;;;;;;5037236;28;20092;-70
2023/12/16 00:23:41;;;;;;;1999.90;999.90;;;7.50;99.90;;;;;;5022906;28;20026;-70
2023/12/16 00:26:06;;;;;;;1999.90;999.90;;;7.40;99.90;;;;;;5039707;28;20030;-70
2023/12/16 00:28:32;;;;;;;1999.90;999.90;;;7.40;99.90;;;;;;5048446;28;20100;-70
2023/12/16 00:30:58;;;;;;;1999.90;999.90;;;7.40;99.90;;;;;;5040744;28;20064;-70
2023/12/16 00:33:23;;;;;;;1999.90;999.90;;;7.40;99.90;;;;;;5030377;28;20482;-70
2023/12/16 00:35:49;;;;;;;1999.90;999.90;;;7.40;99.90;;;;;;5035156;28;20033;-70
2023/12/16 00:38:15;;;;;;;1999.90;999.90;;;7.40;99.90;;;;;;5043355;28;20355;-71
2023/12/16 00:40:40;;;;;;;1999.90;999.90;;;7.40;99.90;;;;;;5029514;28;20121;-70
2023/12/16 00:43:06;;;;;;;1999.90;999.90;;;7.40;99.90;;;;;;5017207;28;20372;-70
2023/12/16 00:45:32;;;;;;;1999.90;999.90;;;7.30;99.90;;;;;;5034814;28;20033;-70
2023/12/16 00:47:57;;;;;;;1999.90;999.90;;;7.30;99.90;;;;;;5039201;28;20022;-70
2023/12/16 00:50:24;;;;;;;1999.90;999.90;;;7.30;99.90;;;;;;5038925;28;20020;-70
2023/12/16 00:52:49;;;;;;;1999.90;999.90;;;7.30;99.90;;;;;;5050608;28;20021;-70
2023/12/16 00:55:15;;;;;;;1999.90;999.90;;;7.30;99.90;;;;;;5042838;28;20098;-70
2023/12/16 00:57:41;;;;;;;1999.90;999.90;;;7.20;99.90;;;;;;5035862;28;20477;-70
2023/12/16 01:00:07;;;;;;;1999.90;999.90;;;7.20;99.90;;;;;;5041147;28;20021;-70
2023/12/16 01:02:33;;;;;;;1999.90;999.90;;;7.10;99.90;;;;;;5035108;28;20068;-70
2023/12/16 01:04:58;;;;;;;1999.90;999.90;;;7.10;99.90;;;;;;5043126;28;20093;-70
2023/12/16 01:07:24;;;;;;;1999.90;999.90;;;7.00;99.90;;;;;;5027155;28;20120;-71
2023/12/16 01:09:51;;;;;;;1999.90;999.90;;;7.00;99.90;;;;;;5023012;28;20026;-70
2023/12/16 01:12:17;;;;;;;1999.90;999.90;;;6.90;99.90;;;;;;5040620;28;20024;-70
2023/12/16 01:14:42;;;;;;;1999.90;999.90;;;6.90;99.90;;;;;;5036973;28;20404;-70
2023/12/16 01:17:08;;;;;;;1999.90;999.90;;;6.90;99.90;;;;;;5030110;28;20037;-70
2023/12/16 01:19:34;;;;;;;1999.90;999.90;;;6.80;99.90;;;;;;5022291;28;20021;-70
2023/12/16 01:21:59;;;;;;;1999.90;999.90;;;6.80;99.90;;;;;;5029936;28;20040;-70
2023/12/16 01:24:25;;;;;;;1999.90;999.90;;;6.80;99.90;;;;;;5025791;28;20091;-70
2023/12/16 01:26:51;;;;;;;1999.90;999.90;;;6.80;99.90;;;;;;5031799;28;20419;-70
2023/12/16 01:29:17;;;;;;;1999.90;999.90;;;6.80;99.90;;;;;;5034064;28;20037;-70
2023/12/16 01:31:43;;;;;;;1999.90;999.90;;;6.80;99.90;;;;;;5032947;28;20022;-70
2023/12/16 01:34:08;;;;;;;1999.90;999.90;;;6.70;99.90;;;;;;5028441;28;20090;-70
2023/12/16 01:36:34;;;;;;;1999.90;999.90;;;6.70;99.90;;;;;;5027748;28;20048;-70
2023/12/16 01:39:00;;;;;;;1999.90;999.90;;;6.70;99.90;;;;;;5030594;28;20033;-70
2023/12/16 01:41:26;;;;;;;1999.90;999.90;;;6.70;99.90;;;;;;5032632;28;20041;-70
2023/12/16 01:43:52;;;;;;;1999.90;999.90;;;6.70;99.90;;;;;;5028541;28;20402;-70
2023/12/16 01:46:19;;;;;;;1999.90;999.90;;;6.70;99.90;;;;;;5028770;28;20369;-70
2023/12/16 01:48:44;;;;;;;;;;;6.60;99.90;;;;;;5032212;28;20024;-70
2023/12/16 01:51:11;;;;;;;1999.90;999.90;;;6.60;99.90;;;;;;5032833;28;19912;-70
2023/12/16 01:53:37;;;;;;;1999.90;999.90;;;6.60;99.90;;;;;;5031084;28;20427;-70
2023/12/16 01:56:04;;;;;;;1999.90;999.90;;;6.60;99.90;;;;;;5038046;28;20031;-70
2023/12/16 01:58:30;;;;;;;1999.90;999.90;;;6.60;99.90;;;;;;5029924;28;20037;-70
2023/12/16 02:00:56;;;;;;;1999.90;999.90;;;6.50;99.90;;;;;;5029793;28;20033;-70
2023/12/16 02:03:22;;;;;;;1999.90;999.90;;;6.50;99.90;;;;;;5030121;28;20340;-70
2023/12/16 02:05:48;;;;;;;1999.90;999.90;;;6.50;99.90;;;;;;5028243;28;20160;-71
2023/12/16 02:08:14;;;;;;;1999.90;999.90;;;6.50;99.90;;;;;;5028252;28;20022;-70
2023/12/16 02:10:40;;;;;;;1999.90;999.90;;;6.40;99.90;;;;;;5030420;28;20258;-71
2023/12/16 02:13:05;;;;;;;1999.90;999.90;;;6.40;99.90;;;;;;5023239;28;20026;-70
2023/12/16 02:15:31;;;;;;;1999.90;999.90;;;6.40;99.90;;;;;;5018609;28;20324;-70
2023/12/16 02:17:57;;;;;;;1999.90;999.90;;;6.40;99.90;;;;;;5032847;28;20053;-70
2023/12/16 02:20:23;;;;;;;1999.90;999.90;;;6.40;99.90;;;;;;5036296;28;20024;-70
2023/12/16 02:22:50;;;;;;;1999.90;999.90;;;6.40;99.90;;;;;;5037129;28;20255;-70
2023/12/16 02:25:17;;;;;;;1999.90;999.90;;;6.30;99.90;;;;;;5044318;28;20033;-70
2023/12/16 02:27:46;;;;;;;1999.90;999.90;;;6.30;99.90;;;;;;5043870;28;20025;-70
2023/12/16 02:30:13;;;;;;;1999.90;999.90;;;6.30;99.90;;;;;;5043016;28;20017;-70
2023/12/16 02:32:38;;;;;;;1999.90;999.90;;;6.30;99.90;;;;;;5036276;28;20053;-70
2023/12/16 02:35:05;;;;;;;1999.90;999.90;;;6.30;99.90;;;;;;5032016;28;20099;-70
2023/12/16 02:37:31;;;;;;;;;;;6.40;99.90;;;;;;5038533;28;20037;-70
2023/12/16 02:39:57;;;;;;;1999.90;999.90;;;6.40;99.90;;;;;;5038912;28;20235;-70
2023/12/16 02:42:22;;;;;;;1999.90;999.90;;;6.40;99.90;;;;;;5050860;28;20436;-70
2023/12/16 02:44:48;;;;;;;1999.90;999.90;;;6.40;99.90;;;;;;5041284;28;20343;-70
2023/12/16 02:47:14;;;;;;;1999.90;999.90;;;6.40;99.90;;;;;;5028150;28;20036;-70
2023/12/16 02:49:40;;;;;;;1999.90;999.90;;;6.40;99.90;;;;;;5022625;28;20096;-70
2023/12/16 02:52:06;;;;;;;1999.90;999.90;;;6.50;99.90;;;;;;5037942;28;20028;-70
2023/12/16 02:54:32;;;;;;;1999.90;999.90;;;6.50;99.90;;;;;;5035795;28;20033;-70
2023/12/16 02:56:58;;;;;;;1999.90;999.90;;;6.50;99.90;;;;;;5051131;28;20037;-70
2023/12/16 02:59:24;;;;;;;1999.90;999.90;;;6.60;99.90;;;;;;5047865;28;20033;-70
2023/12/16 03:01:49;;;;;;;1999.90;999.90;;;6.60;99.90;;;;;;5044381;28;20044;-71
2023/12/16 03:04:15;;;;;;;1999.90;999.90;;;6.60;99.90;;;;;;5044733;28;20035;-70
2023/12/16 03:06:45;;;;;;;1999.90;999.90;;;6.60;99.90;;;;;;5042253;28;20033;-70
2023/12/16 03:09:11;;;;;;;1999.90;999.90;;;6.60;99.90;;;;;;5048880;28;20065;-70
2023/12/16 03:11:37;;;;;;;1999.90;999.90;;;6.60;99.90;;;;;;5052528;28;20025;-70
2023/12/16 03:14:03;;;;;;;1999.90;999.90;;;6.60;99.90;;;;;;5032420;28;20032;-70
2023/12/16 03:16:31;;;;;;;1999.90;999.90;;;6.60;99.90;;;;;;5040199;28;20041;-70
2023/12/16 03:18:57;;;;;;;1999.90;999.90;;;6.60;99.90;;;;;;5044302;28;20044;-70
2023/12/16 03:21:23;;;;;;;1999.90;999.90;;;6.60;99.90;;;;;;5038286;28;20695;-70
2023/12/16 03:23:49;;;;;;;1999.90;999.90;;;6.60;99.90;;;;;;5035024;28;20067;-70
2023/12/16 03:26:15;;;;;;;1999.90;999.90;;;6.60;99.90;;;;;;5039125;28;20119;-70
2023/12/16 03:28:41;;;;;;;1999.90;999.90;;;6.60;99.90;;;;;;5041884;28;20119;-70
2023/12/16 03:31:07;;;;;;;1999.90;999.90;;;6.60;99.90;;;;;;5041107;28;20097;-70
2023/12/16 03:33:32;;;;;;;1999.90;999.90;;;6.50;99.90;;;;;;5050414;28;20025;-70
2023/12/16 03:35:58;;;;;;;1999.90;999.90;;;6.50;99.90;;;;;;5039953;28;20033;-70
2023/12/16 03:38:24;;;;;;;1999.90;999.90;;;6.50;99.90;;;;;;5044100;28;20108;-70
2023/12/16 03:40:49;;;;;;;1999.90;999.90;;;6.50;99.90;;;;;;5033297;28;20321;-71
2023/12/16 03:43:17;;;;;;;1999.90;999.90;;;6.50;99.90;;;;;;5045293;28;20111;-70
2023/12/16 03:45:43;;;;;;;1999.90;999.90;;;6.50;99.90;;;;;;5047380;28;20030;-70
2023/12/16 03:48:09;;;;;;;1999.90;999.90;;;6.50;99.90;;;;;;5036987;28;20040;-70
2023/12/16 03:50:35;;;;;;;1999.90;999.90;;;6.50;99.90;;;;;;5022361;28;20267;-70
2023/12/16 03:53:01;;;;;;;1999.90;999.90;;;6.40;99.90;;;;;;5031881;28;20025;-70
2023/12/16 03:55:26;;;;;;;1999.90;999.90;;;6.40;99.90;;;;;;5042981;28;20029;-70
2023/12/16 03:57:52;;;;;;;1999.90;999.90;;;6.40;99.90;;;;;;5021121;28;20053;-71
2023/12/16 04:00:18;;;;;;;1999.90;999.90;;;6.40;99.90;;;;;;5042099;28;20025;-70
2023/12/16 04:02:44;;;;;;;1999.90;999.90;;;6.40;99.90;;;;;;5034682;28;20317;-70
2023/12/16 04:05:10;;;;;;;1999.90;999.90;;;6.40;99.90;;;;;;5042461;28;20033;-70
2023/12/16 04:07:36;;;;;;;1999.90;999.90;;;6.30;99.90;;;;;;5031363;28;20037;-70
2023/12/16 04:10:03;;;;;;;1999.90;999.90;;;6.30;99.90;;;;;;5039683;28;20026;-70
2023/12/16 04:12:29;;;;;;;1999.90;999.90;;;6.20;99.90;;;;;;5041508;28;20029;-71
2023/12/16 04:14:54;;;;;;;1999.90;999.90;;;6.20;99.90;;;;;;5030077;28;20087;-71
2023/12/16 04:17:20;;;;;;;1999.90;999.90;;;6.20;99.90;;;;;;5043583;28;20037;-70
2023/12/16 04:19:53;;;;;;;1999.90;999.90;;;6.20;99.90;;;;;;5054969;28;20017;-70
2023/12/16 04:22:20;;;;;;;1999.90;999.90;;;6.20;99.90;;;;;;5032778;28;20032;-70
2023/12/16 04:24:48;;;;;;;1999.90;999.90;;;6.20;99.90;;;;;;5029123;28;20032;-70
2023/12/16 04:27:13;;;;;;;1999.90;999.90;;;6.20;99.90;;;;;;5032224;28;20030;-70
2023/12/16 04:29:39;;;;;;;1999.90;999.90;;;6.20;99.90;;;;;;5030940;28;20437;-71
2023/12/16 04:32:05;;;;;;;1999.90;999.90;;;6.20;99.90;;;;;;5045636;28;20025;-70
2023/12/16 04:34:31;;;;;;;1999.90;999.90;;;6.20;99.90;;;;;;5036431;28;20049;-71
2023/12/16 04:36:56;;;;;;;1999.90;999.90;;;6.10;99.90;;;;;;5035194;28;20761;-70
2023/12/16 04:39:22;;;;;;;1999.90;999.90;;;6.10;99.90;;;;;;5036768;28;20312;-70
2023/12/16 04:41:48;;;;;;;1999.90;999.90;;;6.10;99.90;;;;;;5037674;28;20337;-70
2023/12/16 04:44:13;;;;;;;1999.90;999.90;;;6.10;99.90;;;;;;5042278;28;20112;-70
2023/12/16 04:46:39;;;;;;;1999.90;999.90;;;6.10;99.90;;;;;;5034319;28;20025;-70
2023/12/16 04:49:04;;;;;;;1999.90;999.90;;;6.10;99.90;;;;;;5042077;28;20036;-70
2023/12/16 04:51:30;;;;;;;1999.90;999.90;;;6.10;99.90;;;;;;5041935;28;20064;-70
2023/12/16 04:53:56;;;;;;;1999.90;999.90;;;6.10;99.90;;;;;;5040309;28;20021;-70
2023/12/16 04:56:22;;;;;;;1999.90;999.90;;;6.10;99.90;;;;;;5038411;28;20025;-70
2023/12/16 04:58:49;;;;;;;1999.90;999.90;;;6.10;99.90;;;;;;5049343;28;20111;-70
2023/12/16 05:01:14;;;;;;;1999.90;999.90;;;6.10;99.90;;;;;;5040389;28;20321;-70
2023/12/16 05:03:41;;;;;;;1999.90;999.90;;;6.10;99.90;;;;;;5040376;28;20048;-70
2023/12/16 05:06:08;;;;;;;1999.90;999.90;;;6.10;99.90;;;;;;5037216;28;20298;-70
2023/12/16 05:08:33;;;;;;;1999.90;999.90;;;6.10;99.90;;;;;;5047681;28;22164;-70
2023/12/16 05:10:59;;;;;;;1999.90;999.90;;;6.10;99.90;;;;;;5033013;28;20032;-70
2023/12/16 05:13:25;;;;;;;1999.90;999.90;;;6.10;99.90;;;;;;5034076;28;20029;-70
2023/12/16 05:15:53;;;;;;;1999.90;999.90;;;6.10;99.90;;;;;;5030475;28;20033;-70
2023/12/16 05:18:19;;;;;;;1999.90;999.90;;;6.10;99.90;;;;;;5035347;28;20047;-70
2023/12/16 05:20:45;;;;;;;1999.90;999.90;;;6.00;99.90;;;;;;5024114;28;20433;-71
2023/12/16 05:23:11;;;;;;;1999.90;999.90;;;6.00;99.90;;;;;;5028545;28;20026;-71
2023/12/16 05:25:39;;;;;;;1999.90;999.90;;;6.00;99.90;;;;;;5023530;28;20029;-70
2023/12/16 05:28:05;;;;;;;1999.90;999.90;;;5.90;99.90;;;;;;5034973;28;20032;-70
2023/12/16 05:30:31;;;;;;;1999.90;999.90;;;5.90;99.90;;;;;;5031972;28;20034;-70
2023/12/16 05:32:57;;;;;;;1999.90;999.90;;;5.90;99.90;;;;;;5035649;28;20033;-71
2023/12/16 05:35:23;;;;;;;1999.90;999.90;;;5.80;99.90;;;;;;5034596;28;20125;-70
2023/12/16 05:37:48;;;;;;;1999.90;999.90;;;5.80;99.90;;;;;;5027117;28;20442;-70
2023/12/16 05:40:14;;;;;;;1999.90;999.90;;;5.80;99.90;;;;;;5031834;28;20112;-70
2023/12/16 05:42:40;;;;;;;1999.90;999.90;;;5.80;99.90;;;;;;5028737;28;20041;-70
2023/12/16 05:45:07;;;;;;;1999.90;999.90;;;5.80;99.90;;;;;;5034222;28;20049;-70
2023/12/16 05:47:33;;;;;;;;;;;5.70;99.90;;;;;;5028040;28;20026;-70
2023/12/16 05:49:59;;;;;;;1999.90;999.90;;;5.70;99.90;;;;;;5023613;28;19913;-70
2023/12/16 05:52:25;;;;;;;1999.90;999.90;;;5.70;99.90;;;;;;5023256;28;20033;-70
2023/12/16 05:54:50;;;;;;;1999.90;999.90;;;5.70;99.90;;;;;;5030693;28;20050;-70
2023/12/16 05:57:16;;;;;;;1999.90;999.90;;;5.70;99.90;;;;;;5031154;28;20101;-70
2023/12/16 05:59:42;;;;;;;1999.90;999.90;;;5.70;99.90;;;;;;5037101;28;20079;-70
2023/12/16 06:02:08;;;;;;;1999.90;999.90;;;5.70;99.90;;;;;;5033466;28;20454;-70
2023/12/16 06:04:34;;;;;;;1999.90;999.90;;;5.70;99.90;;;;;;5045594;28;20025;-71
2023/12/16 06:07:00;;;;;;;1999.90;999.90;;;5.70;99.90;;;;;;5046609;28;20021;-70
2023/12/16 06:09:25;;;;;;;1999.90;999.90;;;5.80;99.90;;;;;;5031175;28;20109;-70
2023/12/16 06:11:51;;;;;;;1999.90;999.90;;;5.80;99.90;;;;;;5034973;28;20026;-70
2023/12/16 06:14:17;;;;;;;1999.90;999.90;;;5.80;99.90;;;;;;5028265;28;20029;-70
2023/12/16 06:16:42;;;;;;;1999.90;999.90;;;5.80;99.90;;;;;;5042928;28;20113;-71
2023/12/16 06:19:08;;;;;;;1999.90;999.90;;;5.90;99.90;;;;;;5038921;28;20037;-70
2023/12/16 06:21:34;;;;;;;1999.90;999.90;;;5.90;99.90;;;;;;5042917;28;20448;-70
2023/12/16 06:24:00;;;;;;;1999.90;999.90;;;5.90;99.90;;;;;;5026138;28;20036;-70
2023/12/16 06:26:26;;;;;;;1999.90;999.90;;;5.90;99.90;;;;;;5045667;28;20029;-70
2023/12/16 06:28:52;;;;;;;1999.90;999.90;;;5.90;99.90;;;;;;5043080;28;20022;-70
2023/12/16 06:31:18;;;;;;;1999.90;999.90;;;6.00;99.90;;;;;;5033993;28;20029;-70
2023/12/16 06:33:45;;;;;;;1999.90;999.90;;;6.00;99.90;;;;;;5047141;28;20029;-70
2023/12/16 06:36:10;;;;;;;1999.90;999.90;;;6.00;99.90;;;;;;5044864;28;20049;-70
2023/12/16 06:38:36;;;;;;;1999.90;999.90;;;6.00;99.90;;;;;;5044714;28;20029;-70
2023/12/16 06:41:03;;;;;;;1999.90;999.90;;;5.90;99.90;;;;;;5035881;28;20321;-70
2023/12/16 06:43:29;;;;;;;1999.90;999.90;;;5.90;99.90;;;;;;5044428;28;21191;-70
2023/12/16 06:45:55;;;;;;;1999.90;999.90;;;6.00;99.90;;;;;;5038737;28;20061;-70
2023/12/16 06:48:21;;;;;;;1999.90;999.90;;;6.00;99.90;;;;;;5031614;28;20029;-70
2023/12/16 06:50:49;;;;;;;1999.90;999.90;;;6.00;99.90;;;;;;5025700;28;20348;-70
2023/12/16 06:53:15;;;;;;;1999.90;999.90;;;6.00;99.90;;;;;;5051217;28;20062;-71
2023/12/16 06:55:41;;;;;;;1999.90;999.90;;;6.00;99.90;;;;;;5035129;28;20018;-70
2023/12/16 06:58:06;;;;;;;1999.90;999.90;;;6.00;99.90;;;;;;5046722;28;20317;-70
2023/12/16 07:00:32;;;;;;;1999.90;999.90;;;6.10;99.90;;;;;;5035166;28;20048;-70
2023/12/16 07:02:58;;;;;;;1999.90;999.90;;;6.00;99.90;;;;;;5023968;28;20033;-70
2023/12/16 07:05:23;;;;;;;1999.90;999.90;;;6.00;99.90;;;;;;5044174;28;20120;-70
2023/12/16 07:07:49;;;;;;;1999.90;999.90;;;6.10;99.90;;;;;;5035173;28;20053;-71
2023/12/16 07:10:15;;;;;;;1999.90;999.90;;;6.10;99.90;;;;;;5038108;28;20118;-70
2023/12/16 07:12:40;;;;;;;1999.90;999.90;;;6.10;99.90;;;;;;5039244;28;20044;-70
2023/12/16 07:15:07;;;;;;;1999.90;999.90;;;6.10;99.90;;;;;;5048977;28;20025;-71
2023/12/16 07:17:33;;;;;;;1999.90;999.90;;;6.10;99.90;;;;;;5044628;28;20482;-70
2023/12/16 07:19:59;;;;;;;1999.90;999.90;;;6.10;99.90;;;;;;5035871;28;20033;-70
2023/12/16 07:22:26;;;;;;;1999.90;999.90;;;6.10;99.90;;;;;;5027383;28;20327;-71
2023/12/16 07:24:52;;;;;;;1999.90;999.90;;;6.10;99.90;;;;;;5036793;28;20025;-70
2023/12/16 07:27:18;;;;;;;1999.90;999.90;;;6.10;99.90;;;;;;5047357;28;20434;-70
2023/12/16 07:29:43;;;;;;;1999.90;999.90;;;6.10;99.90;;;;;;5048051;28;20458;-70
2023/12/16 07:32:09;;;;;;;1999.90;999.90;;;6.20;99.90;;;;;;5047832;28;20058;-70
2023/12/16 07:34:35;;;;;;;1999.90;999.90;;;6.20;99.90;;;;;;5043002;28;20021;-70
2023/12/16 07:37:00;;;;;;;1999.90;999.90;;;6.20;99.90;;;;;;5054512;28;20029;-70
2023/12/16 07:39:26;;;;;;;1999.90;999.90;;;6.20;99.90;;;;;;5044040;28;20018;-70
2023/12/16 07:41:52;;;;;;;1999.90;999.90;;;6.30;99.90;;;;;;5040834;28;20041;-70
2023/12/16 07:44:17;;;;;;;1999.90;999.90;;;6.30;99.90;;;;;;5045784;28;20408;-71
2023/12/16 07:46:43;;;;;;;1999.90;999.90;;;6.30;99.90;;;;;;5050825;28;20443;-70
2023/12/16 07:49:09;;;;;;;1999.90;999.90;;;6.30;99.90;;;;;;5047462;28;20033;-70
2023/12/16 07:51:36;;;;;;;1999.90;999.90;;;6.30;99.90;;;;;;5041453;28;20021;-71
2023/12/16 07:54:02;;;;;;;1999.90;999.90;;;6.30;99.90;;;;;;5039741;28;20584;-70
2023/12/16 07:56:28;;;;;;;1999.90;999.90;;;6.20;99.90;;;;;;5033608;28;20079;-70
2023/12/16 07:58:54;;;;;;;1999.90;999.90;;;6.30;99.90;;;;;;5035205;28;20036;-71
2023/12/16 08:01:20;;;;;;;1999.90;999.90;;;6.30;99.90;;;;;;5045317;28;20879;-70
2023/12/16 08:03:47;;;;;;;1999.90;999.90;;;6.30;99.90;;;;;;5038198;28;20116;-71
2023/12/16 08:06:17;;;;;;;1999.90;999.90;;;6.30;99.90;;;;;;5024275;28;20029;-70
2023/12/16 08:08:43;;;;;;;1999.90;999.90;;;6.30;99.90;;;;;;5029047;28;20068;-71
2023/12/16 08:11:09;;;;;;;1999.90;999.90;;;6.40;99.90;;;;;;5033335;28;20439;-71
2023/12/16 08:13:36;;;;;;;1999.90;999.90;;;6.40;99.90;;;;;;5035657;28;20029;-70
2023/12/16 08:16:04;;;;;;;1999.90;999.90;;;6.40;99.90;;;;;;5019664;28;20092;-70
2023/12/16 08:18:31;;;;;;;1999.90;999.90;;;6.40;99.90;;;;;;5043769;28;20044;-70
2023/12/16 08:20:57;;;;;;;1999.90;999.90;;;6.50;99.90;;;;;;5027960;28;20034;-71
2023/12/16 08:23:23;;;;;;;1999.90;999.90;;;6.60;99.90;;;;;;5033506;28;20037;-71
2023/12/16 08:25:49;;;;;;;1999.90;999.90;;;6.60;99.90;;;;;;5045713;28;20332;-70
2023/12/16 08:28:16;;;;;;;1999.90;999.90;;;6.70;99.90;;;;;;5049154;28;20079;-71
2023/12/16 08:30:42;;;;;;;;;;;6.80;99.90;;;;;;5033790;28;20271;-71
2023/12/16 08:33:08;;;;;;;;;;;6.80;99.90;;;;;;5037092;28;20050;-70
2023/12/16 08:35:34;;;;;;;1999.90;999.90;;;6.80;99.90;;;;;;5024741;28;20095;-70
2023/12/16 08:38:01;;;;;;;1999.90;999.90;;;6.90;99.90;;;;;;5034359;28;20447;-70
2023/12/16 08:40:27;;;;;;;1999.90;999.90;;;6.90;99.90;;;;;;5035354;28;20017;-70
2023/12/16 08:42:52;;;;;;;1999.90;999.90;;;6.90;99.90;;;;;;5030242;28;20025;-70
2023/12/16 08:45:18;;;;;;;1999.90;999.90;;;7.00;99.90;;;;;;5033013;28;20104;-70
2023/12/16 08:47:45;;;;;;;1999.90;999.90;;;7.00;99.90;;;;;;5039337;28;20033;-70
2023/12/16 08:50:11;;;;;;;1999.90;999.90;;;7.00;99.90;;;;;;5046553;28;20029;-70
2023/12/16 08:52:36;;;;;;;1999.90;999.90;;;7.10;99.90;;;;;;5046336;28;20362;-70
2023/12/16 08:55:05;;;;;;;1999.90;999.90;;;7.10;99.90;;;;;;5035715;28;20080;-71
2023/12/16 08:57:32;;;;;;;1999.90;999.90;;;7.20;99.90;;;;;;5032123;28;20029;-70
2023/12/16 08:59:58;;;;;;;1999.90;999.90;;;7.30;99.90;;;;;;5043477;28;20021;-70
2023/12/16 09:02:24;;;;;;;1999.90;999.90;;;7.30;99.90;;;;;;5046540;28;20392;-70
2023/12/16 09:04:50;;;;;;;1999.90;999.90;;;7.40;99.90;;;;;;5041375;28;20298;-70
2023/12/16 09:07:17;;;;;;;1999.90;999.90;;;7.40;99.90;;;;;;5036461;28;20030;-70
2023/12/16 09:09:44;;;;;;;1999.90;999.90;;;7.50;99.90;;;;;;5046089;28;20028;-70
2023/12/16 09:12:11;;;;;;;1999.90;999.90;;;7.50;99.90;;;;;;5048573;28;20307;-71
2023/12/16 09:14:37;;;;;;;;;;;7.60;99.90;;;;;;5053240;28;20013;-70
2023/12/16 09:17:03;;;;;;;1999.90;999.90;;;7.60;99.90;;;;;;5051280;28;19936;-70
2023/12/16 09:19:29;;;;;;;1999.90;999.90;;;7.70;99.90;;;;;;5053419;28;20094;-71
2023/12/16 09:21:54;;;;;;;1999.90;999.90;;;7.80;99.90;;;;;;5030322;28;20352;-70
2023/12/16 09:24:21;;;;;;;1999.90;999.90;;;7.80;99.90;;;;;;5029960;28;20499;-70
2023/12/16 09:26:47;;;;;;;;;;;7.90;99.90;;;;;;5043390;28;20021;-70
2023/12/16 09:29:13;;;;;;;1999.90;999.90;;;7.90;99.90;;;;;;5051781;28;19904;-70
2023/12/16 09:31:39;;;;;;;1999.90;999.90;;;8.00;99.90;;;;;;5052949;28;20470;-71
2023/12/16 09:34:05;;;;;;;1999.90;999.90;;;8.00;99.90;;;;;;5043688;28;20013;-71
2023/12/16 09:36:31;;;;;;;1999.90;999.90;;;8.10;99.90;;;;;;5035752;28;20274;-71
2023/12/16 09:38:57;;;;;;;1999.90;999.90;;;8.10;99.90;;;;;;5025859;28;20017;-71
2023/12/16 09:41:30;;;;;;;1999.90;999.90;;;8.10;99.90;;;;;;5025887;28;20037;-70
2023/12/16 09:44:03;;;;;;;1999.90;999.90;;;8.10;99.90;;;;;;5023783;28;20025;-71
2023/12/16 09:46:30;;;;;;;1999.90;999.90;;;8.20;99.90;;;;;;5026011;28;20107;-70
2023/12/16 09:48:56;;;;;;;1999.90;999.90;;;8.20;99.90;;;;;;5045443;28;20427;-70
2023/12/16 09:51:23;;;;;;;1999.90;999.90;;;8.20;99.90;;;;;;5040479;28;20367;-70
2023/12/16 09:53:53;;;;;;;1999.90;999.90;;;8.30;99.90;;;;;;5030192;28;20424;-71
2023/12/16 09:56:20;;;;;;;1999.90;999.90;;;8.40;99.90;;;;;;5029989;28;20034;-70
2023/12/16 09:58:47;;;;;;;1999.90;999.90;;;8.40;99.90;;;;;;5035026;28;20444;-71
2023/12/16 10:01:13;;;;;;;1999.90;999.90;;;8.40;99.90;;;;;;5038045;28;20030;-71
2023/12/16 10:03:41;;;;;;;1999.90;999.90;;;8.40;99.90;;;;;;5041156;28;20039;-71
2023/12/16 10:06:09;;;;;;;1999.90;999.90;;;8.50;99.90;;;;;;5031433;28;20075;-70
2023/12/16 10:08:35;;;;;;;1999.90;999.90;;;8.50;99.90;;;;;;5047699;28;20067;-71
2023/12/16 10:11:04;;;;;;;1999.90;999.90;;;8.60;99.90;;;;;;5033854;28;20029;-70
2023/12/16 10:13:31;;;;;;;1999.90;999.90;;;8.60;99.90;;;;;;5032355;28;20029;-70
2023/12/16 10:15:59;;;;;;;1999.90;999.90;;;8.60;99.90;;;;;;5028289;28;20593;-70
2023/12/16 10:18:27;;;;;;;1999.90;999.90;;;8.60;99.90;;;;;;5030174;28;20067;-71
2023/12/16 10:20:55;;;;;;;1999.90;999.90;;;8.60;99.90;;;;;;5030437;28;20128;-70
2023/12/16 10:23:22;;;;;;;1999.90;999.90;;;8.60;99.90;;;;;;5029218;28;20033;-70
2023/12/16 10:25:49;;;;;;;1999.90;999.90;;;8.60;99.90;;;;;;5043767;28;20033;-70
2023/12/16 10:28:15;;;;;;;1999.90;999.90;;;8.60;99.90;;;;;;5028311;28;20037;-70
2023/12/16 10:30:42;;;;;;;1999.90;999.90;;;8.70;99.90;;;;;;5043733;28;20061;-70
2023/12/16 10:33:09;;;;;;;1999.90;999.90;;;8.70;99.90;;;;;;5027704;28;20071;-70
2023/12/16 10:35:36;;;;;;;1999.90;999.90;;;8.70;99.90;;;;;;5040521;28;20478;-70
2023/12/16 10:38:02;;;;;;;;;;;8.70;99.90;;;;;;5045579;28;20033;-70
2023/12/16 10:40:28;;;;;;;1999.90;999.90;;;8.70;99.90;;;;;;5031949;28;19905;-70
2023/12/16 10:42:54;;;;;;;1999.90;999.90;;;8.70;99.90;;;;;;5039602;28;20102;-71
2023/12/16 10:45:20;;;;;;;1999.90;999.90;;;8.80;99.90;;;;;;5045384;28;20075;-71
2023/12/16 10:47:49;;;;;;;1999.90;999.90;;;8.90;99.90;;;;;;5052373;28;20313;-70
2023/12/16 10:50:15;;;;;;;1999.90;999.90;;;9.10;99.90;;;;;;5052017;28;20246;-70
2023/12/16 10:52:52;;;;;;;1999.90;999.90;;;9.10;99.90;;;;;;5044180;28;20083;-70
2023/12/16 10:55:37;;;;;;;1999.90;999.90;;;9.10;99.90;;;;;;5047729;28;20438;-70
2023/12/16 10:58:20;;;;;;;1999.90;999.90;;;9.10;99.90;;;;;;5021936;28;20030;-71
2023/12/16 11:00:50;;;;;;;1999.90;999.90;;;9.10;99.90;;;;;;5034759;28;20443;-70
2023/12/16 11:03:24;;;;;;;1999.90;999.90;;;9.10;99.90;;;;;;5024814;28;20041;-70
2023/12/16 11:05:55;;;;;;;1999.90;999.90;;;9.10;99.90;;;;;;5033343;28;20220;-71
2023/12/16 11:08:22;;;;;;;1999.90;999.90;;;9.10;99.90;;;;;;5034672;28;20030;-71
2023/12/16 11:10:48;;;;;;;1999.90;999.90;;;9.10;99.90;;;;;;5035495;28;20489;-71
2023/12/16 11:13:15;;;;;;;1999.90;999.90;;;9.10;99.90;;;;;;5020670;28;20060;-71
2023/12/16 11:15:41;;;;;;;1999.90;999.90;;;9.10;99.90;;;;;;5047863;28;20423;-70
2023/12/16 11:18:24;;;;;;;1999.90;999.90;;;9.10;99.90;;;;;;5041516;28;20167;-71
2023/12/16 11:20:54;;;;;;;1999.90;999.90;;;9.10;99.90;;;;;;5037362;28;20116;-71
2023/12/16 11:23:22;;;;;;;1999.90;999.90;;;9.10;99.90;;;;;;5031449;28;20037;-71
2023/12/16 11:25:49;;;;;;;1999.90;999.90;;;9.10;99.90;;;;;;5035607;28;20025;-71
2023/12/16 11:28:15;;;;;;;1999.90;999.90;;;9.10;99.90;;;;;;5035822;28;20087;-71
2023/12/16 11:30:41;;;;;;;1999.90;999.90;;;9.10;99.90;;;;;;5035906;28;20479;-71
2023/12/16 11:33:07;;;;;;;1999.90;999.90;;;9.10;99.90;;;;;;5035349;28;20432;-71
2023/12/16 11:35:38;;;;;;;1999.90;999.90;;;9.10;99.90;;;;;;5035830;28;20435;-70
2023/12/16 11:38:05;;;;;;;1999.90;999.90;;;9.10;99.90;;;;;;5035296;28;20028;-71
2023/12/16 11:40:44;;;;;;;1999.90;999.90;;;9.20;99.90;;;;;;5035754;28;20067;-71
2023/12/16 11:43:11;;;;;;;1999.90;999.90;;;9.20;99.90;;;;;;5034987;28;20036;-71
2023/12/16 11:45:45;;;;;;;1999.90;999.90;;;9.20;99.90;;;;;;5034236;28;20040;-71
2023/12/16 11:48:13;;;;;;;1999.90;999.90;;;9.20;99.90;;;;;;5035309;28;20071;-70
2023/12/16 11:50:41;;;;;;;1999.90;999.90;;;9.20;99.90;;;;;;5028441;28;20029;-70
2023/12/16 11:53:11;;;;;;;1999.90;999.90;;;9.20;99.90;;;;;;5031138;28;20156;-70
2023/12/16 11:55:37;;;;;;;1999.90;999.90;;;9.20;99.90;;;;;;5028085;28;20025;-70
2023/12/16 11:58:03;;;;;;;1999.90;999.90;;;9.20;99.90;;;;;;5036461;28;20025;-70
2023/12/16 12:00:30;;;;;;;1999.90;999.90;;;9.20;99.90;;;;;;5047629;28;20037;-70
2023/12/16 12:02:59;;;;;;;1999.90;999.90;;;9.20;99.90;;;;;;5042346;28;20319;-70
2023/12/16 12:05:26;;;;;;;1999.90;999.90;;;9.30;99.90;;;;;;5048462;28;20036;-71
2023/12/16 12:07:52;;;;;;;1999.90;999.90;;;9.30;99.90;;;;;;5045553;28;20104;-70